Holley, New York
Current Conditions -  °F | °C
As of 3:54 AM on Thursday 23 Oct 2014 (Local Time) from KROC Reporting Station
Clear Clear  
Wind Chill: 43°   Ceiling: Unl
Heat Index: 48°   Visibility: 10mi
Dew Point: 39°   Wind: 12mph
Humidity: 71%   Direction: 360°N
Pressure: 30.09"   Gusts: NA
Location:  43.23°N, 78.03°W
Report Text: KROC 230754Z 36010KT 10SM CLR 09/04 A3009 RMK AO2 SLP197 T00890039
Loading
Personal Weather Stations






























Interactive Weather Map
Tropical Storm Tracking
New forecast layout! Learn more

10-Day Weather Forecast

Advertisements
Track Severe Weather on mobile